sensor_id;sensor_type;location;lat;lon;timestamp;P1;durP1;ratioP1;P2;durP2;ratioP2
51692;SDS011;37777;53.066;21.638;2022-10-16T00:00:58;31.35;;;15.75;;
51692;SDS011;37777;53.066;21.638;2022-10-16T00:08:03;29.70;;;15.63;;
51692;SDS011;37777;53.066;21.638;2022-10-16T00:15:04;29.13;;;16.98;;
51692;SDS011;37777;53.066;21.638;2022-10-16T00:22:07;26.27;;;15.90;;
51692;SDS011;37777;53.066;21.638;2022-10-16T00:29:09;30.17;;;15.93;;
51692;SDS011;37777;53.066;21.638;2022-10-16T00:36:12;25.80;;;15.45;;
51692;SDS011;37777;53.066;21.638;2022-10-16T00:50:35;30.08;;;15.55;;
51692;SDS011;37777;53.066;21.638;2022-10-16T00:57:37;23.95;;;14.15;;
51692;SDS011;37777;53.066;21.638;2022-10-16T01:04:41;27.40;;;15.15;;
51692;SDS011;37777;53.066;21.638;2022-10-16T01:18:46;26.35;;;14.15;;
51692;SDS011;37777;53.066;21.638;2022-10-16T01:33:10;28.35;;;14.57;;
51692;SDS011;37777;53.066;21.638;2022-10-16T01:40:16;26.25;;;15.38;;
51692;SDS011;37777;53.066;21.638;2022-10-16T01:47:18;27.92;;;14.80;;
51692;SDS011;37777;53.066;21.638;2022-10-16T01:54:23;26.02;;;14.43;;
51692;SDS011;37777;53.066;21.638;2022-10-16T02:01:27;37.33;;;15.35;;
51692;SDS011;37777;53.066;21.638;2022-10-16T02:08:30;26.20;;;14.07;;
51692;SDS011;37777;53.066;21.638;2022-10-16T02:15:32;24.30;;;13.75;;
51692;SDS011;37777;53.066;21.638;2022-10-16T02:22:35;24.58;;;13.95;;
51692;SDS011;37777;53.066;21.638;2022-10-16T02:29:42;23.08;;;13.48;;
51692;SDS011;37777;53.066;21.638;2022-10-16T02:36:50;27.45;;;13.55;;
51692;SDS011;37777;53.066;21.638;2022-10-16T02:43:52;25.55;;;14.00;;
51692;SDS011;37777;53.066;21.638;2022-10-16T02:50:54;25.90;;;13.85;;
51692;SDS011;37777;53.066;21.638;2022-10-16T02:57:56;19.85;;;12.88;;
51692;SDS011;37777;53.066;21.638;2022-10-16T03:04:58;22.67;;;12.75;;
51692;SDS011;37777;53.066;21.638;2022-10-16T03:12:00;21.63;;;12.93;;
51692;SDS011;37777;53.066;21.638;2022-10-16T03:19:02;22.02;;;12.45;;
51692;SDS011;37777;53.066;21.638;2022-10-16T03:26:03;24.75;;;13.02;;
51692;SDS011;37777;53.066;21.638;2022-10-16T03:33:05;20.30;;;12.27;;
51692;SDS011;37777;53.066;21.638;2022-10-16T03:40:08;22.40;;;12.52;;
51692;SDS011;37777;53.066;21.638;2022-10-16T03:47:10;21.88;;;12.75;;
51692;SDS011;37777;53.066;21.638;2022-10-16T03:54:11;26.13;;;13.07;;
51692;SDS011;37777;53.066;21.638;2022-10-16T04:01:14;21.17;;;12.98;;
51692;SDS011;37777;53.066;21.638;2022-10-16T04:08:16;24.80;;;13.00;;
51692;SDS011;37777;53.066;21.638;2022-10-16T04:15:18;20.65;;;12.80;;
51692;SDS011;37777;53.066;21.638;2022-10-16T04:22:20;25.80;;;13.25;;
51692;SDS011;37777;53.066;21.638;2022-10-16T04:29:22;23.98;;;13.23;;
51692;SDS011;37777;53.066;21.638;2022-10-16T04:36:24;26.60;;;15.00;;
51692;SDS011;37777;53.066;21.638;2022-10-16T04:43:29;25.88;;;15.20;;
51692;SDS011;37777;53.066;21.638;2022-10-16T04:50:31;23.67;;;14.70;;
51692;SDS011;37777;53.066;21.638;2022-10-16T04:57:33;29.92;;;15.68;;
51692;SDS011;37777;53.066;21.638;2022-10-16T05:04:35;29.77;;;15.63;;
51692;SDS011;37777;53.066;21.638;2022-10-16T05:11:36;29.08;;;15.85;;
51692;SDS011;37777;53.066;21.638;2022-10-16T05:18:38;28.25;;;16.25;;
51692;SDS011;37777;53.066;21.638;2022-10-16T05:25:40;31.25;;;16.92;;
51692;SDS011;37777;53.066;21.638;2022-10-16T05:32:45;28.55;;;15.10;;
51692;SDS011;37777;53.066;21.638;2022-10-16T05:39:47;32.90;;;16.30;;
51692;SDS011;37777;53.066;21.638;2022-10-16T05:46:49;33.03;;;15.98;;
51692;SDS011;37777;53.066;21.638;2022-10-16T05:53:51;28.23;;;16.30;;
51692;SDS011;37777;53.066;21.638;2022-10-16T06:00:54;28.48;;;16.58;;
51692;SDS011;37777;53.066;21.638;2022-10-16T06:07:56;29.80;;;16.67;;
51692;SDS011;37777;53.066;21.638;2022-10-16T06:14:58;32.10;;;16.25;;
51692;SDS011;37777;53.066;21.638;2022-10-16T06:22:00;31.42;;;16.63;;
51692;SDS011;37777;53.066;21.638;2022-10-16T06:29:04;27.73;;;15.60;;
51692;SDS011;37777;53.066;21.638;2022-10-16T06:36:07;31.27;;;16.77;;
51692;SDS011;37777;53.066;21.638;2022-10-16T06:43:09;31.85;;;17.02;;
51692;SDS011;37777;53.066;21.638;2022-10-16T06:50:11;25.92;;;15.40;;
51692;SDS011;37777;53.066;21.638;2022-10-16T06:57:13;26.52;;;15.70;;
51692;SDS011;37777;53.066;21.638;2022-10-16T07:04:15;26.73;;;16.15;;
51692;SDS011;37777;53.066;21.638;2022-10-16T07:11:18;28.23;;;15.07;;
51692;SDS011;37777;53.066;21.638;2022-10-16T07:18:20;25.00;;;14.75;;
51692;SDS011;37777;53.066;21.638;2022-10-16T07:25:22;32.92;;;14.32;;
51692;SDS011;37777;53.066;21.638;2022-10-16T07:32:24;26.23;;;14.63;;
51692;SDS011;37777;53.066;21.638;2022-10-16T07:39:27;27.63;;;14.52;;
51692;SDS011;37777;53.066;21.638;2022-10-16T07:46:29;26.73;;;14.10;;
51692;SDS011;37777;53.066;21.638;2022-10-16T07:53:31;25.52;;;13.32;;
51692;SDS011;37777;53.066;21.638;2022-10-16T08:00:33;22.88;;;13.85;;
51692;SDS011;37777;53.066;21.638;2022-10-16T08:07:35;20.98;;;13.63;;
51692;SDS011;37777;53.066;21.638;2022-10-16T08:14:37;24.00;;;13.85;;
51692;SDS011;37777;53.066;21.638;2022-10-16T08:21:39;21.92;;;13.13;;
51692;SDS011;37777;53.066;21.638;2022-10-16T08:28:41;24.27;;;12.23;;
51692;SDS011;37777;53.066;21.638;2022-10-16T08:35:49;22.27;;;11.68;;
51692;SDS011;37777;53.066;21.638;2022-10-16T08:50:08;18.65;;;11.68;;
51692;SDS011;37777;53.066;21.638;2022-10-16T08:57:12;18.75;;;12.15;;
51692;SDS011;37777;53.066;21.638;2022-10-16T09:04:36;24.02;;;11.45;;
51692;SDS011;37777;53.066;21.638;2022-10-16T09:11:47;21.08;;;11.38;;
51692;SDS011;37777;53.066;21.638;2022-10-16T09:25:55;15.35;;;10.15;;
51692;SDS011;37777;53.066;21.638;2022-10-16T09:32:58;19.77;;;10.90;;
51692;SDS011;37777;53.066;21.638;2022-10-16T09:40:00;16.58;;;9.90;;
51692;SDS011;37777;53.066;21.638;2022-10-16T09:47:26;19.70;;;10.20;;
51692;SDS011;37777;53.066;21.638;2022-10-16T09:54:29;14.00;;;9.65;;
51692;SDS011;37777;53.066;21.638;2022-10-16T10:01:34;14.90;;;9.93;;
51692;SDS011;37777;53.066;21.638;2022-10-16T10:08:38;14.57;;;9.38;;
51692;SDS011;37777;53.066;21.638;2022-10-16T10:15:41;15.95;;;9.90;;
51692;SDS011;37777;53.066;21.638;2022-10-16T10:22:44;16.52;;;10.00;;
51692;SDS011;37777;53.066;21.638;2022-10-16T10:30:10;16.38;;;9.93;;
51692;SDS011;37777;53.066;21.638;2022-10-16T10:44:51;14.57;;;8.20;;
51692;SDS011;37777;53.066;21.638;2022-10-16T10:52:02;15.18;;;9.77;;
51692;SDS011;37777;53.066;21.638;2022-10-16T11:06:35;13.93;;;9.30;;
51692;SDS011;37777;53.066;21.638;2022-10-16T11:20:42;18.30;;;10.07;;
51692;SDS011;37777;53.066;21.638;2022-10-16T11:35:17;16.20;;;9.30;;
51692;SDS011;37777;53.066;21.638;2022-10-16T11:42:37;16.38;;;9.70;;
51692;SDS011;37777;53.066;21.638;2022-10-16T11:49:40;13.87;;;9.40;;
51692;SDS011;37777;53.066;21.638;2022-10-16T11:56:51;23.50;;;11.88;;
51692;SDS011;37777;53.066;21.638;2022-10-16T12:18:34;16.88;;;9.07;;
51692;SDS011;37777;53.066;21.638;2022-10-16T12:25:42;14.27;;;8.77;;
51692;SDS011;37777;53.066;21.638;2022-10-16T12:32:55;14.25;;;9.07;;
51692;SDS011;37777;53.066;21.638;2022-10-16T12:39:57;19.05;;;10.27;;
51692;SDS011;37777;53.066;21.638;2022-10-16T12:47:00;13.40;;;8.55;;
51692;SDS011;37777;53.066;21.638;2022-10-16T12:54:11;13.38;;;9.68;;
51692;SDS011;37777;53.066;21.638;2022-10-16T13:30:17;13.82;;;9.55;;
51692;SDS011;37777;53.066;21.638;2022-10-16T13:37:24;14.02;;;8.52;;
51692;SDS011;37777;53.066;21.638;2022-10-16T13:44:27;14.40;;;10.13;;
51692;SDS011;37777;53.066;21.638;2022-10-16T13:51:30;14.77;;;9.65;;
51692;SDS011;37777;53.066;21.638;2022-10-16T13:58:35;15.75;;;9.50;;
51692;SDS011;37777;53.066;21.638;2022-10-16T14:05:42;20.77;;;9.77;;
51692;SDS011;37777;53.066;21.638;2022-10-16T14:19:49;18.38;;;9.88;;
51692;SDS011;37777;53.066;21.638;2022-10-16T14:26:59;14.75;;;10.07;;
51692;SDS011;37777;53.066;21.638;2022-10-16T14:34:02;19.38;;;10.48;;
51692;SDS011;37777;53.066;21.638;2022-10-16T14:41:07;21.52;;;12.25;;
51692;SDS011;37777;53.066;21.638;2022-10-16T14:48:14;18.13;;;10.48;;
51692;SDS011;37777;53.066;21.638;2022-10-16T14:55:20;16.80;;;10.95;;
51692;SDS011;37777;53.066;21.638;2022-10-16T15:09:24;20.75;;;12.13;;
51692;SDS011;37777;53.066;21.638;2022-10-16T15:16:26;15.05;;;10.45;;
51692;SDS011;37777;53.066;21.638;2022-10-16T15:23:29;17.05;;;11.00;;
51692;SDS011;37777;53.066;21.638;2022-10-16T15:30:31;28.85;;;15.98;;
51692;SDS011;37777;53.066;21.638;2022-10-16T15:37:33;28.30;;;15.35;;
51692;SDS011;37777;53.066;21.638;2022-10-16T15:44:36;80.47;;;40.33;;
51692;SDS011;37777;53.066;21.638;2022-10-16T15:51:39;33.67;;;17.90;;
51692;SDS011;37777;53.066;21.638;2022-10-16T15:58:41;27.67;;;12.95;;
51692;SDS011;37777;53.066;21.638;2022-10-16T16:05:43;31.15;;;15.30;;
51692;SDS011;37777;53.066;21.638;2022-10-16T16:12:47;30.80;;;16.48;;
51692;SDS011;37777;53.066;21.638;2022-10-16T16:19:53;33.70;;;17.17;;
51692;SDS011;37777;53.066;21.638;2022-10-16T16:26:55;41.88;;;21.50;;
51692;SDS011;37777;53.066;21.638;2022-10-16T16:34:01;41.35;;;23.52;;
51692;SDS011;37777;53.066;21.638;2022-10-16T16:41:13;34.10;;;18.30;;
51692;SDS011;37777;53.066;21.638;2022-10-16T16:48:20;23.50;;;13.70;;
51692;SDS011;37777;53.066;21.638;2022-10-16T16:55:29;32.05;;;14.00;;
51692;SDS011;37777;53.066;21.638;2022-10-16T17:02:35;23.80;;;13.82;;
51692;SDS011;37777;53.066;21.638;2022-10-16T17:09:43;24.73;;;13.63;;
51692;SDS011;37777;53.066;21.638;2022-10-16T17:16:49;26.58;;;14.82;;
51692;SDS011;37777;53.066;21.638;2022-10-16T17:23:51;29.52;;;17.23;;
51692;SDS011;37777;53.066;21.638;2022-10-16T17:30:54;34.40;;;20.33;;
51692;SDS011;37777;53.066;21.638;2022-10-16T17:38:01;35.92;;;18.48;;
51692;SDS011;37777;53.066;21.638;2022-10-16T17:45:06;42.13;;;19.75;;
51692;SDS011;37777;53.066;21.638;2022-10-16T17:52:20;30.35;;;17.05;;
51692;SDS011;37777;53.066;21.638;2022-10-16T17:59:26;31.65;;;16.35;;
51692;SDS011;37777;53.066;21.638;2022-10-16T18:06:32;25.08;;;14.93;;
51692;SDS011;37777;53.066;21.638;2022-10-16T18:13:37;27.42;;;14.95;;
51692;SDS011;37777;53.066;21.638;2022-10-16T18:20:40;25.30;;;12.88;;
51692;SDS011;37777;53.066;21.638;2022-10-16T18:27:50;24.30;;;13.88;;
51692;SDS011;37777;53.066;21.638;2022-10-16T18:34:58;22.90;;;13.48;;
51692;SDS011;37777;53.066;21.638;2022-10-16T18:42:10;30.33;;;15.55;;
51692;SDS011;37777;53.066;21.638;2022-10-16T18:49:11;28.38;;;15.60;;
51692;SDS011;37777;53.066;21.638;2022-10-16T18:56:15;26.05;;;14.80;;
51692;SDS011;37777;53.066;21.638;2022-10-16T19:03:18;24.23;;;14.02;;
51692;SDS011;37777;53.066;21.638;2022-10-16T19:10:20;23.08;;;13.85;;
51692;SDS011;37777;53.066;21.638;2022-10-16T19:17:22;25.50;;;15.18;;
51692;SDS011;37777;53.066;21.638;2022-10-16T19:24:24;24.00;;;14.48;;
51692;SDS011;37777;53.066;21.638;2022-10-16T19:31:27;31.08;;;16.55;;
51692;SDS011;37777;53.066;21.638;2022-10-16T19:38:30;30.70;;;16.48;;
51692;SDS011;37777;53.066;21.638;2022-10-16T19:45:32;33.83;;;16.77;;
51692;SDS011;37777;53.066;21.638;2022-10-16T19:52:35;36.17;;;16.73;;
51692;SDS011;37777;53.066;21.638;2022-10-16T19:59:38;28.33;;;16.65;;
51692;SDS011;37777;53.066;21.638;2022-10-16T20:06:45;31.05;;;17.40;;
51692;SDS011;37777;53.066;21.638;2022-10-16T20:13:47;27.52;;;16.63;;
51692;SDS011;37777;53.066;21.638;2022-10-16T20:20:49;30.70;;;16.98;;
51692;SDS011;37777;53.066;21.638;2022-10-16T20:27:53;29.33;;;16.83;;
51692;SDS011;37777;53.066;21.638;2022-10-16T20:34:56;32.08;;;16.08;;
51692;SDS011;37777;53.066;21.638;2022-10-16T20:41:58;31.70;;;16.45;;
51692;SDS011;37777;53.066;21.638;2022-10-16T20:49:00;28.98;;;16.33;;
51692;SDS011;37777;53.066;21.638;2022-10-16T20:56:16;31.60;;;17.80;;
51692;SDS011;37777;53.066;21.638;2022-10-16T21:03:18;33.65;;;17.90;;
51692;SDS011;37777;53.066;21.638;2022-10-16T21:10:20;31.77;;;16.70;;
51692;SDS011;37777;53.066;21.638;2022-10-16T21:17:22;36.60;;;17.00;;
51692;SDS011;37777;53.066;21.638;2022-10-16T21:24:24;30.70;;;17.02;;
51692;SDS011;37777;53.066;21.638;2022-10-16T21:31:26;28.30;;;15.73;;
51692;SDS011;37777;53.066;21.638;2022-10-16T21:38:28;28.13;;;16.00;;
51692;SDS011;37777;53.066;21.638;2022-10-16T21:45:32;26.30;;;15.45;;
51692;SDS011;37777;53.066;21.638;2022-10-16T21:52:34;32.60;;;16.30;;
51692;SDS011;37777;53.066;21.638;2022-10-16T21:59:35;42.33;;;18.80;;
51692;SDS011;37777;53.066;21.638;2022-10-16T22:06:37;36.10;;;17.73;;
51692;SDS011;37777;53.066;21.638;2022-10-16T22:13:40;30.00;;;15.98;;
51692;SDS011;37777;53.066;21.638;2022-10-16T22:20:45;30.90;;;15.60;;
51692;SDS011;37777;53.066;21.638;2022-10-16T22:27:47;31.27;;;16.77;;
51692;SDS011;37777;53.066;21.638;2022-10-16T22:34:52;29.25;;;14.68;;
51692;SDS011;37777;53.066;21.638;2022-10-16T22:41:54;27.27;;;15.90;;
51692;SDS011;37777;53.066;21.638;2022-10-16T22:48:56;28.80;;;15.43;;
51692;SDS011;37777;53.066;21.638;2022-10-16T22:55:58;24.48;;;15.43;;
51692;SDS011;37777;53.066;21.638;2022-10-16T23:03:00;35.65;;;16.50;;
51692;SDS011;37777;53.066;21.638;2022-10-16T23:10:03;26.13;;;15.48;;
51692;SDS011;37777;53.066;21.638;2022-10-16T23:17:05;28.25;;;15.63;;
51692;SDS011;37777;53.066;21.638;2022-10-16T23:24:07;29.60;;;14.80;;
51692;SDS011;37777;53.066;21.638;2022-10-16T23:31:09;24.52;;;14.40;;
51692;SDS011;37777;53.066;21.638;2022-10-16T23:38:11;29.90;;;15.63;;
51692;SDS011;37777;53.066;21.638;2022-10-16T23:45:13;27.38;;;14.35;;
51692;SDS011;37777;53.066;21.638;2022-10-16T23:52:15;24.38;;;14.40;;
51692;SDS011;37777;53.066;21.638;2022-10-16T23:59:17;26.90;;;14.70;;
